Time;durP1;ratioP1;P1;durP2;ratioP2;P2;SDS_P1;SDS_P2;PMS_P1;PMS_P2;Temp;Humidity;BMP_temperature;BMP_pressure;BME280_temperature;BME280_humidity;BME280_pressure;Samples;Min_cycle;Max_cycle;Signal;HPM_P1;HPM_P2
2021/03/07 00:02:11;;;;;;;9.60;4.97;;;3.70;99.90;;;;;;5065977;28;20200;-81
2021/03/07 00:04:38;;;;;;;8.40;4.73;;;3.70;99.90;;;;;;5031720;28;20229;-80
2021/03/07 00:07:04;;;;;;;6.03;4.50;;;3.60;99.90;;;;;;5019047;28;20200;-80
2021/03/07 00:09:30;;;;;;;6.87;4.37;;;3.60;99.90;;;;;;5033935;28;20216;-82
2021/03/07 00:11:57;;;;;;;6.33;4.43;;;3.60;99.90;;;;;;5063848;28;20235;-81
2021/03/07 00:14:23;;;;;;;7.83;4.87;;;3.60;99.90;;;;;;5065010;28;20298;-80
2021/03/07 00:16:49;;;;;;;7.47;4.77;;;3.60;99.90;;;;;;5064944;28;20208;-83
2021/03/07 00:19:16;;;;;;;7.23;4.77;;;3.50;99.90;;;;;;5031187;28;20209;-82
2021/03/07 00:21:42;;;;;;;7.73;5.03;;;3.60;99.90;;;;;;5050214;28;20681;-81
2021/03/07 00:24:09;;;;;;;7.63;4.47;;;3.70;99.90;;;;;;5049732;28;20199;-81
2021/03/07 00:26:35;;;;;;;9.30;4.50;;;3.90;99.90;;;;;;5031034;28;20204;-82
2021/03/07 00:29:02;;;;;;;9.23;4.73;;;4.00;99.90;;;;;;5066503;28;20555;-80
2021/03/07 00:31:28;;;;;;;6.63;4.60;;;4.00;99.90;;;;;;5044918;28;20255;-82
2021/03/07 00:33:55;;;;;;;6.10;4.63;;;4.00;99.90;;;;;;5059547;28;20647;-82
2021/03/07 00:36:21;;;;;;;9.60;4.90;;;3.90;99.90;;;;;;5045909;28;20227;-83
2021/03/07 00:38:47;;;;;;;10.30;5.77;;;3.80;99.90;;;;;;5044056;28;20291;-83
2021/03/07 00:41:14;;;;;;;6.23;4.80;;;3.80;99.90;;;;;;5047253;28;20204;-81
2021/03/07 00:43:41;;;;;;;7.03;4.40;;;3.80;99.90;;;;;;5050790;28;20618;-83
2021/03/07 00:46:07;;;;;;;13.13;5.63;;;3.70;99.90;;;;;;5051187;28;20637;-81
2021/03/07 00:48:33;;;;;;;9.50;5.47;;;3.80;99.90;;;;;;5065312;28;20259;-80
2021/03/07 00:51:00;;;;;;;9.87;4.87;;;3.90;99.90;;;;;;5061857;28;20208;-80
2021/03/07 00:53:26;;;;;;;9.33;5.33;;;3.80;99.90;;;;;;5051078;28;20200;-81
2021/03/07 00:55:53;;;;;;;7.70;4.13;;;3.70;99.90;;;;;;5033174;28;20542;-80
2021/03/07 00:58:20;;;;;;;7.07;4.37;;;3.80;99.90;;;;;;5045189;28;20241;-80
2021/03/07 01:00:48;;;;;;;7.10;4.30;;;3.90;99.90;;;;;;5054547;28;20200;-81
2021/03/07 01:03:15;;;;;;;6.47;5.03;;;3.90;99.90;;;;;;5042740;28;20666;-79
2021/03/07 01:05:42;;;;;;;7.03;4.80;;;3.80;99.90;;;;;;5040238;28;20230;-79
2021/03/07 01:08:09;;;;;;;9.10;5.23;;;3.90;99.90;;;;;;5036987;28;20671;-79
2021/03/07 01:10:41;;;;;;;7.77;4.57;;;3.80;99.90;;;;;;5049927;28;20212;-79
2021/03/07 01:13:14;;;;;;;7.70;4.27;;;3.80;99.90;;;;;;5059536;28;20282;-79
2021/03/07 01:15:41;;;;;;;9.57;4.60;;;3.80;99.90;;;;;;5061937;28;20219;-82
2021/03/07 01:18:08;;;;;;;7.07;4.60;;;3.80;99.90;;;;;;5063216;28;20233;-80
2021/03/07 01:20:36;;;;;;;5.83;4.00;;;3.80;99.90;;;;;;5049189;28;20264;-82
2021/03/07 01:23:03;;;;;;;7.80;4.90;;;3.70;99.90;;;;;;5039746;28;20200;-83
2021/03/07 01:25:31;;;;;;;6.17;3.90;;;3.60;99.90;;;;;;5060229;28;20211;-83
2021/03/07 01:28:00;;;;;;;6.90;4.47;;;3.60;99.90;;;;;;5062883;28;20948;-83
2021/03/07 01:30:28;;;;;;;6.40;4.07;;;3.60;99.90;;;;;;5042044;28;20740;-80
2021/03/07 01:32:55;;;;;;;7.20;3.90;;;3.80;99.90;;;;;;5048589;28;20257;-80
2021/03/07 01:35:22;;;;;;;5.67;4.23;;;3.90;99.90;;;;;;5046193;28;20202;-81
2021/03/07 01:37:49;;;;;;;6.90;4.67;;;3.70;99.90;;;;;;5066414;28;20227;-80
2021/03/07 01:40:22;;;;;;;10.00;4.80;;;3.70;99.90;;;;;;5044689;28;20255;-82
2021/03/07 01:42:50;;;;;;;7.93;4.40;;;3.70;99.90;;;;;;5059917;28;20212;-81
2021/03/07 01:45:21;;;;;;;7.50;4.33;;;3.80;99.90;;;;;;5049407;28;20241;-82
2021/03/07 01:47:51;;;;;;;7.37;4.23;;;3.90;99.90;;;;;;5050407;28;20253;-81
2021/03/07 01:50:20;;;;;;;5.97;3.47;;;3.80;99.90;;;;;;5061641;28;20212;-81
2021/03/07 01:52:48;;;;;;;7.20;3.93;;;3.60;99.90;;;;;;5049182;28;20240;-81
2021/03/07 01:55:16;;;;;;;11.20;4.37;;;3.60;99.90;;;;;;5054752;28;20231;-82
2021/03/07 01:57:45;;;;;;;6.57;4.07;;;3.60;99.90;;;;;;5050501;28;20258;-81
2021/03/07 02:00:12;;;;;;;6.70;4.60;;;3.60;99.90;;;;;;5052225;28;20199;-83
2021/03/07 02:02:39;;;;;;;9.83;4.80;;;3.60;99.90;;;;;;5049338;28;20208;-84
2021/03/07 02:05:15;;;;;;;8.77;5.03;;;3.60;99.90;;;;;;5047457;28;20206;-83
2021/03/07 02:07:43;;;;;;;10.37;5.13;;;3.60;99.90;;;;;;5046010;28;20215;-84
2021/03/07 02:10:14;;;;;;;7.20;4.80;;;3.50;99.90;;;;;;5056411;28;20262;-84
2021/03/07 02:12:48;;;;;;;8.67;4.93;;;3.50;99.90;;;;;;5050825;28;20238;-82
2021/03/07 02:15:15;;;;;;;7.20;4.00;;;3.50;99.90;;;;;;5053445;28;20326;-82
2021/03/07 02:17:42;;;;;;;8.83;4.73;;;3.30;99.90;;;;;;5036029;28;20207;-81
2021/03/07 02:20:11;;;;;;;7.43;5.13;;;3.20;99.90;;;;;;5037414;28;20274;-82
2021/03/07 02:22:43;;;;;;;5.33;4.10;;;3.00;99.90;;;;;;5052270;28;21648;-82
2021/03/07 02:25:13;;;;;;;6.10;4.30;;;2.90;99.90;;;;;;5050532;28;20264;-82
2021/03/07 02:27:40;;;;;;;6.27;4.27;;;3.00;99.90;;;;;;5054048;28;20215;-82
2021/03/07 02:30:11;;;;;;;5.77;4.33;;;3.00;99.90;;;;;;5045234;28;20248;-82
2021/03/07 02:32:43;;;;;;;8.57;4.07;;;3.10;99.90;;;;;;5053033;28;20248;-82
2021/03/07 02:35:21;;;;;;;7.33;4.30;;;3.10;99.90;;;;;;5060014;28;20518;-81
2021/03/07 02:37:52;;;;;;;10.07;4.40;;;3.00;99.90;;;;;;5049159;28;20310;-82
2021/03/07 02:40:22;;;;;;;9.00;4.80;;;2.90;99.90;;;;;;5064822;28;20262;-82
2021/03/07 02:43:11;;;;;;;8.30;4.07;;;2.90;99.90;;;;;;5054164;28;20218;-82
2021/03/07 02:45:41;;;;;;;7.17;4.23;;;2.80;99.90;;;;;;5063538;28;20215;-81
2021/03/07 02:48:10;;;;;;;6.00;4.20;;;2.80;99.90;;;;;;5069997;28;20611;-81
2021/03/07 02:50:37;;;;;;;6.50;4.53;;;2.90;99.90;;;;;;5063834;28;21143;-81
2021/03/07 02:53:11;;;;;;;8.47;5.13;;;2.90;99.90;;;;;;5063660;28;21035;-81
2021/03/07 02:55:40;;;;;;;5.07;4.47;;;3.00;99.90;;;;;;5063518;28;20204;-81
2021/03/07 02:58:11;;;;;;;8.77;3.80;;;3.00;99.90;;;;;;5065724;28;20561;-81
2021/03/07 03:00:48;;;;;;;6.13;4.77;;;3.00;99.90;;;;;;5063704;28;21060;-81
2021/03/07 03:03:16;;;;;;;7.67;4.63;;;2.90;99.90;;;;;;5068026;28;20266;-79
2021/03/07 03:05:43;;;;;;;7.00;4.17;;;2.80;99.90;;;;;;5052730;28;20211;-81
2021/03/07 03:08:10;;;;;;;6.87;4.57;;;2.90;99.90;;;;;;5035149;28;20209;-80
2021/03/07 03:10:37;;;;;;;4.67;3.97;;;2.80;99.90;;;;;;5049856;28;20249;-81
2021/03/07 03:13:04;;;;;;;7.33;4.83;;;2.60;99.90;;;;;;5025332;28;20234;-80
2021/03/07 03:15:31;;;;;;;6.60;4.37;;;2.60;99.90;;;;;;5029394;28;20201;-83
2021/03/07 03:17:59;;;;;;;7.20;4.70;;;2.60;99.90;;;;;;5022146;28;20556;-84
2021/03/07 03:20:27;;;;;;;7.53;5.40;;;2.50;99.90;;;;;;5025449;28;20570;-82
2021/03/07 03:22:57;;;;;;;6.87;4.30;;;2.50;99.90;;;;;;5033860;28;20197;-83
2021/03/07 03:25:24;;;;;;;10.03;4.77;;;2.60;99.90;;;;;;5048969;28;20263;-83
2021/03/07 03:27:53;;;;;;;6.30;5.03;;;2.60;99.90;;;;;;5046539;28;20308;-81
2021/03/07 03:30:21;;;;;;;8.30;4.83;;;2.60;99.90;;;;;;5031151;28;20293;-82
2021/03/07 03:32:48;;;;;;;6.47;4.83;;;2.50;99.90;;;;;;5029751;28;20202;-83
2021/03/07 03:35:17;;;;;;;6.23;4.50;;;2.60;99.90;;;;;;5042264;28;20200;-83
2021/03/07 03:37:46;;;;;;;7.30;4.17;;;2.60;99.90;;;;;;5042201;28;20860;-82
2021/03/07 03:40:25;;;;;;;5.87;4.30;;;2.60;99.90;;;;;;5042562;28;20202;-83
2021/03/07 03:43:06;;;;;;;8.13;4.53;;;2.70;99.90;;;;;;5031336;28;20288;-84
2021/03/07 03:45:35;;;;;;;8.90;4.90;;;2.60;99.90;;;;;;5026219;28;20203;-83
2021/03/07 03:48:08;;;;;;;4.00;3.40;;;2.70;99.90;;;;;;5026340;28;20229;-84
2021/03/07 03:50:40;;;;;;;5.63;4.23;;;2.60;99.90;;;;;;5034095;28;20216;-84
2021/03/07 03:53:12;;;;;;;6.53;4.17;;;2.50;99.90;;;;;;5032802;28;20193;-84
2021/03/07 03:55:44;;;;;;;6.87;4.30;;;2.40;99.90;;;;;;5026924;28;20208;-82
2021/03/07 03:58:11;;;;;;;5.43;4.07;;;2.40;99.90;;;;;;5032867;28;20610;-83
2021/03/07 04:00:39;;;;;;;7.40;4.00;;;2.40;99.90;;;;;;5029624;28;20613;-82
2021/03/07 04:03:11;;;;;;;5.50;4.10;;;2.30;99.90;;;;;;5033538;28;20652;-80
2021/03/07 04:05:41;;;;;;;6.53;4.37;;;2.30;99.90;;;;;;5023550;28;20303;-83
2021/03/07 04:08:08;;;;;;;6.63;4.33;;;2.20;99.90;;;;;;5038929;28;20200;-81
2021/03/07 04:10:35;;;;;;;6.27;4.10;;;2.20;99.90;;;;;;5030519;28;20244;-81
2021/03/07 04:13:03;;;;;;;6.90;4.47;;;2.20;99.90;;;;;;5049673;28;20738;-80
2021/03/07 04:15:31;;;;;;;8.10;4.43;;;2.20;99.90;;;;;;5050688;28;20203;-82
2021/03/07 04:17:58;;;;;;;6.93;5.00;;;2.20;99.90;;;;;;5051892;28;20515;-80
2021/03/07 04:20:28;;;;;;;5.90;4.47;;;2.40;99.90;;;;;;5045244;28;20545;-81
2021/03/07 04:22:55;;;;;;;7.77;4.37;;;2.60;99.90;;;;;;5044941;28;20245;-81
2021/03/07 04:25:22;;;;;;;6.13;3.97;;;2.50;99.90;;;;;;5044283;28;20270;-80
2021/03/07 04:27:49;;;;;;;5.40;4.17;;;2.40;99.90;;;;;;5050828;28;20246;-79
2021/03/07 04:30:21;;;;;;;5.50;3.47;;;2.20;99.90;;;;;;5060863;28;20227;-80
2021/03/07 04:32:50;;;;;;;6.33;3.30;;;2.10;99.90;;;;;;5059616;28;20232;-80
2021/03/07 04:35:17;;;;;;;6.03;3.70;;;2.10;99.90;;;;;;5049320;28;20251;-81
2021/03/07 04:37:43;;;;;;;6.87;4.37;;;2.10;99.90;;;;;;5052819;28;20232;-80
2021/03/07 04:40:11;;;;;;;6.30;3.90;;;2.10;99.90;;;;;;5032309;28;20204;-79
2021/03/07 04:42:41;;;;;;;7.60;4.70;;;2.00;99.90;;;;;;5052212;28;20192;-81
2021/03/07 04:45:12;;;;;;;5.83;4.00;;;2.10;99.90;;;;;;5057334;28;20265;-80
2021/03/07 04:47:38;;;;;;;7.67;4.80;;;2.10;99.90;;;;;;5048374;28;20660;-82
2021/03/07 04:50:06;;;;;;;6.47;4.70;;;2.00;99.90;;;;;;5050334;28;20204;-81
2021/03/07 04:52:32;;;;;;;6.83;5.20;;;2.00;99.90;;;;;;5052105;28;20291;-85
2021/03/07 04:54:59;;;;;;;7.37;5.60;;;2.00;99.90;;;;;;5034944;28;20210;-80
2021/03/07 04:57:25;;;;;;;9.07;4.97;;;2.00;99.90;;;;;;5034049;28;20205;-80
2021/03/07 04:59:51;;;;;;;8.50;5.23;;;2.10;99.90;;;;;;5032971;28;20218;-81
2021/03/07 05:02:17;;;;;;;9.10;5.37;;;2.30;99.90;;;;;;5045881;28;20305;-80
2021/03/07 05:04:44;;;;;;;9.43;5.27;;;2.30;99.90;;;;;;5060378;28;20743;-79
2021/03/07 05:07:11;;;;;;;8.33;5.60;;;2.30;99.90;;;;;;5045804;28;20207;-82
2021/03/07 05:09:37;;;;;;;8.77;5.27;;;2.30;99.90;;;;;;5045146;28;20251;-81
2021/03/07 05:12:04;;;;;;;9.93;5.30;;;2.40;99.90;;;;;;5060811;28;20698;-80
2021/03/07 05:14:30;;;;;;;10.53;5.53;;;2.40;99.90;;;;;;5039722;28;20246;-79
2021/03/07 05:16:58;;;;;;;7.47;5.40;;;2.50;99.90;;;;;;5044389;28;20203;-79
2021/03/07 05:19:24;;;;;;;9.30;5.83;;;2.50;99.90;;;;;;5049686;28;20196;-82
2021/03/07 05:21:51;;;;;;;9.00;5.57;;;2.40;99.90;;;;;;5034623;28;20227;-80
2021/03/07 05:24:18;;;;;;;8.73;5.83;;;2.50;99.90;;;;;;5055817;28;20230;-80
2021/03/07 05:26:45;;;;;;;8.43;5.03;;;2.50;99.90;;;;;;5025796;28;20208;-82
2021/03/07 05:29:12;;;;;;;5.60;4.70;;;2.50;99.90;;;;;;5049368;28;20211;-81
2021/03/07 05:31:38;;;;;;;6.00;5.37;;;2.50;99.90;;;;;;5043455;28;20219;-84
2021/03/07 05:34:05;;;;;;;8.57;5.37;;;2.50;99.90;;;;;;5028947;28;20203;-81
2021/03/07 05:36:31;;;;;;;6.77;5.00;;;2.50;99.90;;;;;;5047084;28;20203;-80
2021/03/07 05:38:57;;;;;;;8.17;5.60;;;2.50;99.90;;;;;;5037154;28;20196;-82
2021/03/07 05:41:24;;;;;;;6.47;4.70;;;2.40;99.90;;;;;;5048970;28;20518;-79
2021/03/07 05:43:50;;;;;;;8.77;5.70;;;2.40;99.90;;;;;;5043855;28;20206;-80
2021/03/07 05:46:17;;;;;;;12.80;5.13;;;2.50;99.90;;;;;;5052908;28;20211;-79
2021/03/07 05:48:44;;;;;;;8.47;5.77;;;2.40;99.90;;;;;;5049876;28;20265;-81
2021/03/07 05:51:15;;;;;;;10.80;4.97;;;2.50;99.90;;;;;;5052181;28;20276;-83
2021/03/07 05:53:46;;;;;;;8.57;5.33;;;2.50;99.90;;;;;;5052835;28;20256;-79
2021/03/07 05:56:13;;;;;;;7.40;4.90;;;2.70;99.90;;;;;;5059113;28;20255;-79
2021/03/07 05:58:41;;;;;;;8.00;4.63;;;2.60;99.90;;;;;;5051938;28;20205;-79
2021/03/07 06:01:08;;;;;;;8.33;5.73;;;2.50;99.90;;;;;;5050638;28;20264;-78
2021/03/07 06:03:34;;;;;;;7.27;4.67;;;2.60;99.90;;;;;;5059703;28;20207;-83
2021/03/07 06:06:01;;;;;;;4.73;3.83;;;2.40;99.90;;;;;;5048647;28;20311;-82
2021/03/07 06:08:27;;;;;;;6.53;4.50;;;2.40;99.90;;;;;;5048823;28;20282;-84
2021/03/07 06:10:53;;;;;;;7.70;4.40;;;2.40;99.90;;;;;;5050205;28;20240;-81
2021/03/07 06:13:20;;;;;;;6.57;5.10;;;2.50;99.90;;;;;;5047894;28;20298;-80
2021/03/07 06:15:50;;;;;;;6.70;4.30;;;2.40;99.90;;;;;;5062316;28;20627;-81
2021/03/07 06:18:20;;;;;;;9.03;5.00;;;2.50;99.90;;;;;;5040915;28;20208;-81
2021/03/07 06:20:51;;;;;;;5.43;4.47;;;2.50;99.90;;;;;;5064523;28;20199;-79
2021/03/07 06:23:32;;;;;;;6.07;4.93;;;2.60;99.90;;;;;;5057341;28;20220;-83
2021/03/07 06:26:09;;;;;;;11.73;5.90;;;2.40;99.90;;;;;;5054903;28;20200;-80
2021/03/07 06:28:35;;;;;;;8.90;5.10;;;2.40;99.90;;;;;;5064116;28;20231;-80
2021/03/07 06:31:02;;;;;;;7.10;5.30;;;2.60;99.90;;;;;;5058511;28;20698;-79
2021/03/07 06:33:33;;;;;;;5.33;4.83;;;2.50;99.90;;;;;;5067700;28;20249;-79
2021/03/07 06:36:15;;;;;;;6.97;4.80;;;2.50;99.90;;;;;;5049020;28;20268;-79
2021/03/07 06:39:14;;;;;;;9.00;5.53;;;2.40;99.90;;;;;;5073893;28;20199;-81
2021/03/07 06:41:41;;;;;;;6.33;4.80;;;2.50;99.90;;;;;;5028486;28;20595;-78
2021/03/07 06:44:13;;;;;;;6.50;5.17;;;2.40;99.90;;;;;;5034151;28;20610;-80
2021/03/07 06:46:48;;;;;;;8.50;5.20;;;2.50;99.90;;;;;;5049639;28;20684;-79
2021/03/07 06:49:22;;;;;;;6.67;5.00;;;2.50;99.90;;;;;;5062632;28;20760;-83
2021/03/07 06:51:49;;;;;;;7.70;5.47;;;2.60;99.90;;;;;;5062778;28;20208;-79
2021/03/07 06:54:21;;;;;;;8.03;5.63;;;2.60;99.90;;;;;;5044182;28;20196;-79
2021/03/07 06:56:51;;;;;;;7.83;5.40;;;2.60;99.90;;;;;;5049555;28;20222;-79
2021/03/07 06:59:19;;;;;;;7.67;5.03;;;2.60;99.90;;;;;;5063981;28;20199;-79
2021/03/07 07:01:51;;;;;;;10.80;6.50;;;2.70;99.90;;;;;;5047238;28;20280;-78
2021/03/07 07:04:18;;;;;;;6.90;5.40;;;2.80;99.90;;;;;;5064377;28;20211;-81
2021/03/07 07:07:04;;;;;;;8.97;5.50;;;2.80;99.90;;;;;;5066440;28;20199;-78
2021/03/07 07:09:32;;;;;;;7.73;5.77;;;2.90;99.90;;;;;;5043095;28;20232;-78
2021/03/07 07:11:59;;;;;;;10.43;5.90;;;2.90;99.90;;;;;;5054040;28;20234;-76
2021/03/07 07:14:42;;;;;;;8.50;5.83;;;2.90;99.90;;;;;;5065247;28;20280;-80
2021/03/07 07:17:16;;;;;;;7.87;5.20;;;3.00;99.90;;;;;;5063585;28;20242;-77
2021/03/07 07:19:44;;;;;;;12.37;6.50;;;3.00;99.90;;;;;;5065858;28;20335;-82
2021/03/07 07:22:13;;;;;;;7.90;5.17;;;3.00;99.90;;;;;;5061850;28;21262;-80
2021/03/07 07:24:42;;;;;;;8.70;5.73;;;3.10;99.90;;;;;;5066306;28;20252;-82
2021/03/07 07:27:09;;;;;;;9.27;6.10;;;3.10;99.90;;;;;;5050029;28;20297;-80
2021/03/07 07:29:37;;;;;;;7.20;5.37;;;3.20;99.90;;;;;;5027629;28;20264;-80
2021/03/07 07:32:12;;;;;;;8.83;5.50;;;3.00;99.90;;;;;;5049608;28;20199;-76
2021/03/07 07:34:49;;;;;;;9.30;5.37;;;3.00;99.90;;;;;;5048681;28;20483;-81
2021/03/07 07:37:34;;;;;;;8.63;6.27;;;3.10;99.90;;;;;;5041593;28;20219;-80
2021/03/07 07:40:02;;;;;;;8.40;6.17;;;3.30;99.90;;;;;;5047734;28;20286;-80
2021/03/07 07:42:31;;;;;;;9.40;5.57;;;3.30;99.90;;;;;;5042141;28;20621;-81
2021/03/07 07:45:16;;;;;;;10.53;6.57;;;3.40;99.90;;;;;;5064164;28;20206;-84
2021/03/07 07:47:44;;;;;;;7.63;4.70;;;3.50;99.90;;;;;;5047629;28;20210;-82
2021/03/07 07:50:34;;;;;;;8.20;5.90;;;3.40;99.90;;;;;;5070643;28;20245;-82
2021/03/07 07:53:05;;;;;;;9.47;5.07;;;3.40;99.90;;;;;;5065467;28;20603;-83
2021/03/07 07:55:44;;;;;;;7.50;5.00;;;3.50;99.90;;;;;;5063186;28;20293;-85
2021/03/07 07:58:31;;;;;;;7.43;5.47;;;3.80;99.90;;;;;;5062460;28;20200;-88
2021/03/07 08:00:59;;;;;;;9.20;5.13;;;3.70;99.90;;;;;;5051220;28;20207;-84
2021/03/07 08:03:49;;;;;;;11.37;5.20;;;3.70;99.90;;;;;;5052712;28;20209;-88
2021/03/07 08:06:27;;;;;;;11.70;5.43;;;3.80;99.90;;;;;;5054788;28;20203;-84
2021/03/07 08:08:54;;;;;;;7.10;4.90;;;4.10;99.90;;;;;;5067453;28;20210;-85
2021/03/07 08:11:38;;;;;;;11.60;5.07;;;4.10;99.90;;;;;;5035325;28;20619;-84
2021/03/07 08:14:05;;;;;;;7.63;4.37;;;4.10;99.90;;;;;;5049471;28;20477;-81
2021/03/07 08:16:44;;;;;;;7.43;4.80;;;4.10;99.90;;;;;;5066603;28;20530;-79
2021/03/07 08:19:19;;;;;;;6.87;4.73;;;4.20;99.90;;;;;;5048887;28;20218;-85
2021/03/07 08:21:54;;;;;;;8.67;4.33;;;4.40;99.90;;;;;;5050349;28;20229;-77
2021/03/07 08:24:20;;;;;;;7.70;4.87;;;4.50;99.90;;;;;;5056073;28;20210;-73
2021/03/07 08:26:47;;;;;;;9.30;4.30;;;4.40;99.90;;;;;;5042142;28;20219;-74
2021/03/07 08:29:41;;;;;;;7.33;4.60;;;4.30;99.90;;;;;;5058130;28;20222;-73
2021/03/07 08:32:28;;;;;;;5.67;4.47;;;4.90;99.90;;;;;;5059369;28;20303;-73
2021/03/07 08:35:00;;;;;;;6.67;4.43;;;5.10;99.90;;;;;;5059636;28;20204;-73
2021/03/07 08:37:27;;;;;;;5.83;3.83;;;4.90;99.90;;;;;;5059499;28;20208;-73
2021/03/07 08:40:25;;;;;;;5.73;3.97;;;4.80;99.90;;;;;;5062434;28;20198;-73
2021/03/07 08:42:52;;;;;;;4.10;3.70;;;5.00;99.90;;;;;;5041718;28;20208;-75
2021/03/07 08:45:20;;;;;;;7.77;3.73;;;5.00;99.90;;;;;;5055733;28;20260;-73
2021/03/07 08:47:58;;;;;;;5.30;3.77;;;5.30;99.90;;;;;;5058110;28;20200;-75
2021/03/07 08:50:27;;;;;;;4.27;3.77;;;5.20;99.90;;;;;;5059544;28;20449;-73
2021/03/07 08:52:54;;;;;;;8.40;3.67;;;5.50;99.90;;;;;;5045754;28;20260;-73
2021/03/07 08:55:21;;;;;;;6.77;3.97;;;5.40;99.90;;;;;;5058795;28;20211;-76
2021/03/07 08:57:55;;;;;;;5.10;3.53;;;5.70;99.90;;;;;;5057090;28;20604;-73
2021/03/07 09:00:22;;;;;;;5.00;3.70;;;5.60;99.90;;;;;;5040126;28;20632;-73
2021/03/07 09:02:49;;;;;;;6.33;3.80;;;5.70;99.90;;;;;;5060123;28;20203;-73
2021/03/07 09:05:28;;;;;;;5.07;3.80;;;5.80;99.90;;;;;;5043586;28;20681;-73
2021/03/07 09:08:02;;;;;;;5.73;3.50;;;5.80;99.90;;;;;;5060892;28;20222;-74
2021/03/07 09:10:33;;;;;;;6.97;3.50;;;5.70;99.90;;;;;;5041019;28;20216;-73
2021/03/07 09:13:27;;;;;;;5.50;3.00;;;5.80;99.90;;;;;;5037430;28;20240;-73
2021/03/07 09:16:02;;;;;;;4.23;2.80;;;5.70;99.90;;;;;;5056372;28;20615;-73
2021/03/07 09:18:31;;;;;;;4.23;2.77;;;5.70;99.90;;;;;;5044542;28;20638;-73
2021/03/07 09:21:16;;;;;;;7.17;3.07;;;5.90;99.90;;;;;;5058273;28;20646;-73
2021/03/07 09:23:45;;;;;;;4.27;2.87;;;6.10;99.90;;;;;;5040776;28;20201;-74
2021/03/07 09:26:17;;;;;;;5.23;2.40;;;6.20;99.90;;;;;;5058469;28;20674;-74
2021/03/07 09:28:46;;;;;;;2.13;1.80;;;6.00;99.90;;;;;;5058135;28;20661;-73
2021/03/07 09:31:17;;;;;;;2.87;2.47;;;6.50;99.90;;;;;;5056820;28;20226;-74
2021/03/07 09:33:51;;;;;;;4.67;2.27;;;6.80;99.90;;;;;;5059438;28;20199;-73
2021/03/07 09:36:19;;;;;;;4.53;2.13;;;7.10;99.90;;;;;;5058282;28;20272;-73
2021/03/07 09:38:51;;;;;;;5.03;2.60;;;7.40;99.90;;;;;;5041815;28;21931;-74
2021/03/07 09:41:33;;;;;;;4.27;2.50;;;7.70;99.90;;;;;;5043251;28;20231;-73
2021/03/07 09:44:05;;;;;;;2.33;2.13;;;7.90;99.90;;;;;;5055234;28;20243;-73
2021/03/07 09:46:32;;;;;;;4.70;2.40;;;7.60;99.90;;;;;;5053021;28;20365;-73
2021/03/07 09:49:07;;;;;;;9.30;2.30;;;8.00;99.90;;;;;;5054192;28;20271;-72
2021/03/07 09:51:38;;;;;;;3.60;2.43;;;8.40;99.90;;;;;;5042380;28;20278;-72
2021/03/07 09:54:13;;;;;;;3.60;2.60;;;7.80;99.90;;;;;;5054203;28;20546;-73
2021/03/07 09:56:40;;;;;;;2.97;2.30;;;8.10;99.50;;;;;;5036800;28;20213;-74
2021/03/07 09:59:11;;;;;;;3.13;2.33;;;7.70;99.90;;;;;;5036927;28;20283;-75
2021/03/07 10:01:48;;;;;;;3.73;2.53;;;8.10;99.90;;;;;;5040937;28;20303;-75
2021/03/07 10:04:39;;;;;;;2.47;2.20;;;8.40;99.90;;;;;;5054054;28;20220;-74
2021/03/07 10:07:12;;;;;;;4.63;3.73;;;8.50;95.30;;;;;;5039337;28;20216;-74
2021/03/07 10:10:03;;;;;;;5.47;4.07;;;7.40;93.40;;;;;;5055684;28;20273;-75
2021/03/07 10:12:54;;;;;;;7.57;4.37;;;7.70;91.10;;;;;;5050213;28;20707;-74
2021/03/07 10:15:35;;;;;;;5.73;4.07;;;7.30;92.30;;;;;;5053556;28;20894;-74
2021/03/07 10:18:13;;;;;;;6.03;4.23;;;8.10;90.80;;;;;;5055552;28;20277;-75
2021/03/07 10:20:45;;;;;;;7.93;5.50;;;8.30;88.80;;;;;;5063652;28;20206;-74
2021/03/07 10:23:12;;;;;;;4.93;4.20;;;8.50;85.70;;;;;;5044477;28;20253;-74
2021/03/07 10:25:47;;;;;;;9.37;5.70;;;8.30;85.80;;;;;;5039930;28;20191;-74
2021/03/07 10:28:37;;;;;;;11.20;6.07;;;8.10;88.50;;;;;;5059857;28;20204;-75
2021/03/07 10:31:13;;;;;;;9.23;6.87;;;8.00;88.50;;;;;;5049949;28;20532;-80
2021/03/07 10:33:40;;;;;;;9.87;7.70;;;8.40;88.10;;;;;;5039667;28;20270;-75
2021/03/07 10:36:17;;;;;;;8.70;6.23;;;8.20;86.70;;;;;;5041584;28;20317;-74
2021/03/07 10:38:45;;;;;;;7.97;6.13;;;8.20;86.90;;;;;;5047207;28;20591;-75
2021/03/07 10:41:33;;;;;;;12.17;7.23;;;8.60;86.20;;;;;;5049522;28;20204;-74
2021/03/07 10:44:05;;;;;;;10.93;6.23;;;8.60;86.00;;;;;;5061815;28;20200;-75
2021/03/07 10:46:43;;;;;;;9.67;6.17;;;8.10;87.30;;;;;;5059633;28;20286;-75
2021/03/07 10:49:21;;;;;;;9.67;6.53;;;7.90;87.40;;;;;;5059040;28;20306;-75
2021/03/07 10:51:48;;;;;;;8.33;6.33;;;8.40;86.20;;;;;;5047598;28;21210;-75
2021/03/07 10:54:15;;;;;;;8.73;6.70;;;8.70;85.60;;;;;;5058173;28;20208;-75
2021/03/07 10:56:41;;;;;;;8.87;6.97;;;9.10;79.50;;;;;;5043370;28;20271;-74
2021/03/07 10:59:09;;;;;;;9.93;6.30;;;9.10;78.50;;;;;;5057898;28;20211;-74
2021/03/07 11:01:37;;;;;;;10.67;7.53;;;8.80;78.40;;;;;;5058348;28;20256;-73
2021/03/07 11:04:05;;;;;;;11.77;7.40;;;8.90;83.30;;;;;;5040876;28;20271;-74
2021/03/07 11:06:31;;;;;;;9.43;7.07;;;9.10;75.50;;;;;;5044469;28;20265;-74
2021/03/07 11:08:57;;;;;;;8.43;6.93;;;9.10;76.30;;;;;;5031271;28;20256;-74
2021/03/07 11:11:24;;;;;;;10.13;7.33;;;8.80;79.60;;;;;;5047263;28;20294;-75
2021/03/07 11:13:50;;;;;;;10.63;7.30;;;9.10;78.20;;;;;;5059797;28;20258;-74
2021/03/07 11:16:16;;;;;;;8.10;6.80;;;9.60;74.40;;;;;;5060426;28;20266;-75
2021/03/07 11:18:43;;;;;;;10.40;6.60;;;9.70;73.50;;;;;;5042300;28;20198;-76
2021/03/07 11:21:10;;;;;;;7.70;6.63;;;10.20;71.70;;;;;;5060847;28;20283;-74
2021/03/07 11:23:36;;;;;;;8.93;6.50;;;10.10;72.20;;;;;;5061085;28;20214;-73
2021/03/07 11:26:04;;;;;;;9.50;6.70;;;9.60;72.90;;;;;;5060650;28;20229;-73
2021/03/07 11:28:30;;;;;;;10.80;7.40;;;9.40;71.70;;;;;;5057428;28;20199;-74
2021/03/07 11:30:58;;;;;;;9.80;6.33;;;9.70;70.70;;;;;;5044009;28;20211;-74
2021/03/07 11:33:25;;;;;;;8.83;6.33;;;9.90;71.10;;;;;;5059379;28;20199;-74
2021/03/07 11:35:52;;;;;;;9.40;6.43;;;9.60;69.90;;;;;;5045366;28;20283;-74
2021/03/07 11:38:20;;;;;;;8.67;6.40;;;9.00;71.60;;;;;;5047858;28;20223;-74
2021/03/07 11:40:46;;;;;;;7.77;6.67;;;9.10;73.70;;;;;;5060533;28;20692;-73
2021/03/07 11:43:13;;;;;;;9.30;5.97;;;9.20;74.30;;;;;;5056345;28;20346;-74
2021/03/07 11:45:39;;;;;;;8.40;6.00;;;9.30;71.40;;;;;;5038510;28;20238;-73
2021/03/07 11:48:06;;;;;;;9.77;7.23;;;9.30;71.10;;;;;;5058183;28;20213;-72
2021/03/07 11:50:33;;;;;;;13.50;5.97;;;9.90;67.70;;;;;;5043683;28;20305;-74
2021/03/07 11:52:59;;;;;;;8.20;6.43;;;9.90;65.20;;;;;;5058157;28;20206;-74
2021/03/07 11:55:26;;;;;;;7.60;5.93;;;10.30;71.60;;;;;;5044740;28;20197;-74
2021/03/07 11:57:52;;;;;;;6.57;5.10;;;10.20;68.70;;;;;;5043757;28;20199;-74
2021/03/07 12:00:18;;;;;;;8.47;6.23;;;9.90;63.10;;;;;;5058193;28;20234;-74
2021/03/07 12:02:45;;;;;;;8.53;6.30;;;9.30;65.50;;;;;;5031635;28;20240;-73
2021/03/07 12:05:12;;;;;;;8.73;6.57;;;9.00;68.30;;;;;;5042178;28;20240;-73
2021/03/07 12:07:38;;;;;;;8.60;6.20;;;9.10;69.40;;;;;;5059347;28;20217;-75
2021/03/07 12:10:05;;;;;;;8.93;6.47;;;9.40;67.60;;;;;;5046030;28;20203;-74
2021/03/07 12:12:32;;;;;;;6.90;5.77;;;9.40;67.80;;;;;;5059094;28;20303;-73
2021/03/07 12:14:58;;;;;;;7.57;6.60;;;9.40;67.50;;;;;;5055563;28;20244;-74
2021/03/07 12:17:25;;;;;;;8.07;6.17;;;8.90;69.80;;;;;;5055765;28;20921;-73
2021/03/07 12:20:05;;;;;;;7.73;5.73;;;8.70;71.60;;;;;;5054176;28;20278;-75
2021/03/07 12:22:33;;;;;;;7.57;5.50;;;8.40;74.50;;;;;;5058515;28;20196;-73
2021/03/07 12:25:01;;;;;;;7.83;6.10;;;8.50;75.40;;;;;;5042373;28;20191;-73
2021/03/07 12:27:27;;;;;;;7.43;5.37;;;8.90;74.40;;;;;;5039536;28;20226;-73
2021/03/07 12:29:53;;;;;;;6.37;5.53;;;8.70;75.70;;;;;;5054897;28;20203;-73
2021/03/07 12:32:20;;;;;;;6.70;4.83;;;8.40;76.10;;;;;;5039270;28;20279;-72
2021/03/07 12:34:46;;;;;;;8.77;4.70;;;8.20;78.20;;;;;;5055252;28;20210;-73
2021/03/07 12:37:13;;;;;;;6.17;4.77;;;8.30;76.50;;;;;;5056873;28;20731;-73
2021/03/07 12:39:39;;;;;;;6.03;4.93;;;8.00;76.70;;;;;;5053666;28;20628;-72
2021/03/07 12:42:06;;;;;;;6.10;5.23;;;7.80;79.30;;;;;;5056693;28;20230;-73
2021/03/07 12:44:32;;;;;;;10.43;5.57;;;7.60;78.50;;;;;;5055614;28;20218;-72
2021/03/07 12:47:00;;;;;;;5.37;4.77;;;7.90;78.50;;;;;;5058664;28;20309;-74
2021/03/07 12:49:26;;;;;;;6.77;5.13;;;9.10;75.70;;;;;;5057500;28;20261;-73
2021/03/07 12:51:53;;;;;;;8.30;5.03;;;8.90;71.40;;;;;;5056945;28;20226;-73
2021/03/07 12:54:19;;;;;;;8.13;5.77;;;9.10;73.70;;;;;;5045173;28;20230;-73
2021/03/07 12:56:46;;;;;;;8.00;5.40;;;9.60;66.30;;;;;;5056589;28;20270;-73
2021/03/07 12:59:12;;;;;;;6.90;5.00;;;10.30;68.30;;;;;;5055773;28;20572;-72
2021/03/07 13:01:39;;;;;;;6.30;4.57;;;10.80;62.80;;;;;;5032984;28;20218;-75
2021/03/07 13:04:05;;;;;;;5.73;4.53;;;10.50;61.70;;;;;;5044155;28;20230;-72
2021/03/07 13:06:32;;;;;;;7.00;4.60;;;11.10;60.90;;;;;;5057852;28;20204;-74
2021/03/07 13:08:58;;;;;;;4.63;3.77;;;9.70;61.10;;;;;;5055028;28;20622;-73
2021/03/07 13:11:24;;;;;;;4.30;3.70;;;9.10;66.20;;;;;;5041617;28;20662;-73